createdAt,value
2022-10-12T00:00:57.673Z,0.88
2022-10-12T00:03:24.263Z,1.73
2022-10-12T00:06:04.951Z,0.70
2022-10-12T00:08:31.397Z,0.70
2022-10-12T00:10:57.806Z,0.85
2022-10-12T00:13:24.447Z,1.02
2022-10-12T00:15:50.849Z,0.80
2022-10-12T00:18:17.207Z,0.90
2022-10-12T00:20:43.558Z,0.52
2022-10-12T00:23:09.948Z,1.33
2022-10-12T00:25:40.382Z,0.80
2022-10-12T00:28:06.835Z,0.90
2022-10-12T00:30:33.537Z,0.85
2022-10-12T00:32:59.859Z,0.80
2022-10-12T00:35:28.207Z,1.38
2022-10-12T00:37:54.923Z,0.98
2022-10-12T00:40:23.148Z,0.63
2022-10-12T00:42:49.544Z,0.50
2022-10-12T00:45:16.205Z,0.70
2022-10-12T00:47:50.859Z,0.80
2022-10-12T00:50:27.104Z,0.70
2022-10-12T00:53:00.106Z,0.70
2022-10-12T00:55:29.438Z,0.80
2022-10-12T00:57:55.945Z,0.80
2022-10-12T01:00:22.747Z,0.52
2022-10-12T01:02:50.238Z,0.70
2022-10-12T01:05:17.461Z,0.93
2022-10-12T01:07:44.082Z,0.73
2022-10-12T01:10:10.981Z,0.60
2022-10-12T01:12:38.599Z,0.90
2022-10-12T01:15:05.376Z,0.60
2022-10-12T01:18:03.950Z,0.80
2022-10-12T01:20:48.836Z,0.98
2022-10-12T01:23:21.105Z,0.57
2022-10-12T01:26:05.700Z,0.60
2022-10-12T01:28:41.498Z,0.88
2022-10-12T01:31:22.336Z,0.82
2022-10-12T01:33:50.613Z,0.85
2022-10-12T01:36:40.277Z,1.08
2022-10-12T01:39:15.789Z,0.70
2022-10-12T01:41:52.885Z,0.63
2022-10-12T01:44:26.047Z,0.93
2022-10-12T01:46:56.110Z,0.70
2022-10-12T01:49:25.860Z,0.70
2022-10-12T01:52:10.843Z,1.02
2022-10-12T01:54:52.109Z,0.80
2022-10-12T01:57:27.690Z,0.70
2022-10-12T02:00:03.593Z,0.70
2022-10-12T02:02:34.229Z,0.95
2022-10-12T02:05:04.321Z,0.60
2022-10-12T02:07:51.713Z,0.80
2022-10-12T02:10:24.253Z,1.73
2022-10-12T02:12:54.833Z,0.75
2022-10-12T02:15:22.596Z,0.70
2022-10-12T02:17:49.517Z,0.80
2022-10-12T02:20:16.920Z,0.73
2022-10-12T02:22:45.335Z,0.70
2022-10-12T02:25:12.432Z,0.50
2022-10-12T02:27:40.774Z,0.50
2022-10-12T02:30:08.437Z,0.70
2022-10-12T02:33:07.333Z,1.00
2022-10-12T02:35:52.388Z,0.70
2022-10-12T02:38:32.016Z,0.90
2022-10-12T02:41:04.724Z,0.52
2022-10-12T02:43:38.962Z,0.80
2022-10-12T02:46:07.136Z,0.80
2022-10-12T02:48:34.002Z,0.70
2022-10-12T02:51:01.299Z,1.15
2022-10-12T02:53:29.193Z,0.88
2022-10-12T02:56:00.249Z,0.90
2022-10-12T02:58:26.627Z,0.80
2022-10-12T03:00:52.996Z,0.70
2022-10-12T03:03:19.392Z,0.70
2022-10-12T03:05:46.025Z,0.80
2022-10-12T03:08:12.660Z,0.60
2022-10-12T03:10:41.377Z,0.80
2022-10-12T03:13:07.752Z,0.77
2022-10-12T03:15:34.098Z,1.05
2022-10-12T03:18:00.514Z,1.17
2022-10-12T03:20:26.900Z,0.52
2022-10-12T03:22:53.298Z,0.60
2022-10-12T03:25:19.756Z,0.80
2022-10-12T03:27:46.230Z,1.08
2022-10-12T03:30:12.755Z,0.68
2022-10-12T03:32:39.904Z,0.60
2022-10-12T03:35:06.697Z,0.70
2022-10-12T03:37:33.070Z,1.50
2022-10-12T03:39:59.417Z,0.50
2022-10-12T03:42:25.900Z,0.60
2022-10-12T03:44:52.213Z,0.52
2022-10-12T03:47:20.784Z,0.70
2022-10-12T03:49:47.106Z,0.80
2022-10-12T03:52:13.526Z,0.90
2022-10-12T03:54:39.892Z,0.70
2022-10-12T03:57:06.235Z,1.30
2022-10-12T03:59:32.720Z,0.70
2022-10-12T04:01:59.075Z,1.10
2022-10-12T04:04:25.473Z,0.93
2022-10-12T04:06:51.808Z,1.05
2022-10-12T04:09:18.146Z,0.70
2022-10-12T04:11:44.610Z,0.70
2022-10-12T04:14:10.995Z,0.80
2022-10-12T04:16:37.859Z,1.02
2022-10-12T04:19:04.213Z,0.50
2022-10-12T04:21:31.181Z,0.60
2022-10-12T04:23:58.195Z,0.50
2022-10-12T04:26:24.601Z,0.70
2022-10-12T04:28:54.173Z,0.60
2022-10-12T04:31:20.662Z,0.88
2022-10-12T04:33:47.033Z,1.20
2022-10-12T04:36:13.598Z,1.00
2022-10-12T04:38:39.944Z,0.98
2022-10-12T04:41:06.281Z,2.20
2022-10-12T04:43:32.683Z,1.23
2022-10-12T04:46:02.007Z,0.70
2022-10-12T04:48:29.043Z,0.80
2022-10-12T04:50:55.430Z,1.15
2022-10-12T04:53:21.921Z,1.00
2022-10-12T04:55:48.270Z,0.90
2022-10-12T04:58:14.690Z,1.13
2022-10-12T05:00:41.073Z,0.77
2022-10-12T05:03:07.446Z,0.70
2022-10-12T05:05:34.568Z,0.88
2022-10-12T05:08:00.967Z,0.55
2022-10-12T05:10:29.900Z,0.63
2022-10-12T05:12:56.334Z,0.77
2022-10-12T05:15:22.704Z,0.90
2022-10-12T05:17:49.050Z,0.90
2022-10-12T05:20:15.493Z,0.73
2022-10-12T05:22:41.847Z,0.77
2022-10-12T05:25:08.626Z,0.95
2022-10-12T05:27:34.988Z,1.30
2022-10-12T05:30:01.448Z,1.88
2022-10-12T05:32:27.792Z,0.77
2022-10-12T05:34:55.167Z,1.00
2022-10-12T05:37:21.566Z,0.80
2022-10-12T05:39:49.771Z,0.88
2022-10-12T05:42:16.452Z,1.35
2022-10-12T05:44:45.542Z,0.93
2022-10-12T05:47:12.079Z,1.20
2022-10-12T05:49:38.466Z,1.02
2022-10-12T05:52:04.884Z,1.92
2022-10-12T05:54:31.228Z,1.30
2022-10-12T05:56:57.637Z,0.77
2022-10-12T05:59:24.135Z,1.58
2022-10-12T06:01:50.615Z,1.08
2022-10-12T06:04:17.039Z,1.20
2022-10-12T06:06:43.381Z,1.65
2022-10-12T06:09:09.963Z,2.45
2022-10-12T06:11:36.753Z,1.60
2022-10-12T06:14:03.461Z,1.92
2022-10-12T06:16:29.798Z,2.10
2022-10-12T06:18:56.307Z,2.42
2022-10-12T06:21:38.211Z,2.13
2022-10-12T06:24:04.763Z,1.88
2022-10-12T06:26:31.184Z,1.98
2022-10-12T06:28:57.700Z,1.95
2022-10-12T06:31:24.107Z,1.90
2022-10-12T06:33:51.027Z,3.70
2022-10-12T06:36:17.468Z,2.83
2022-10-12T06:38:43.820Z,1.85
2022-10-12T06:41:11.672Z,2.10
2022-10-12T06:43:38.001Z,2.13
2022-10-12T06:46:04.808Z,2.20
2022-10-12T06:48:31.235Z,1.85
2022-10-12T06:50:57.607Z,2.30
2022-10-12T06:53:27.089Z,2.00
2022-10-12T06:55:53.427Z,1.60
2022-10-12T06:58:19.752Z,2.22
2022-10-12T07:00:46.130Z,1.88
2022-10-12T07:03:13.091Z,2.20
2022-10-12T07:05:39.506Z,3.05
2022-10-12T07:08:05.919Z,2.70
2022-10-12T07:10:32.356Z,2.58
2022-10-12T07:12:58.858Z,2.90
2022-10-12T07:15:25.237Z,3.35
2022-10-12T07:17:51.593Z,2.35
2022-10-12T07:20:18.017Z,2.55
2022-10-12T07:22:44.634Z,1.45
2022-10-12T07:25:10.979Z,1.67
2022-10-12T07:27:37.664Z,1.52
2022-10-12T07:30:05.677Z,1.95
2022-10-12T07:32:32.051Z,1.83
2022-10-12T07:34:58.397Z,1.33
2022-10-12T07:37:25.299Z,1.65
2022-10-12T07:39:57.092Z,2.47
2022-10-12T07:42:24.373Z,1.90
2022-10-12T07:44:51.773Z,1.45
2022-10-12T07:47:19.380Z,1.65
2022-10-12T07:49:45.918Z,2.60
2022-10-12T07:52:12.389Z,1.80
2022-10-12T07:54:38.761Z,3.25
2022-10-12T07:57:05.294Z,1.52
2022-10-12T07:59:31.642Z,1.70
2022-10-12T08:01:58.092Z,1.50
2022-10-12T08:04:24.458Z,1.67
2022-10-12T08:06:50.842Z,1.27
2022-10-12T08:09:18.527Z,1.40
2022-10-12T08:11:44.873Z,1.60
2022-10-12T08:14:14.960Z,1.42
2022-10-12T08:16:42.269Z,1.73
2022-10-12T08:19:08.720Z,2.75
2022-10-12T08:21:35.179Z,1.50
2022-10-12T08:24:01.536Z,1.77
2022-10-12T08:26:30.303Z,1.67
2022-10-12T08:28:57.106Z,1.55
2022-10-12T08:31:23.507Z,1.92
2022-10-12T08:33:49.957Z,1.98
2022-10-12T08:36:16.414Z,2.10
2022-10-12T08:38:43.828Z,2.17
2022-10-12T08:41:28.867Z,2.55
2022-10-12T08:44:07.771Z,3.85
2022-10-12T08:46:34.156Z,3.90
2022-10-12T08:49:00.524Z,3.95
2022-10-12T08:51:29.595Z,3.50
2022-10-12T08:54:01.837Z,5.47
2022-10-12T08:56:29.527Z,4.00
2022-10-12T08:58:55.950Z,5.10
2022-10-12T09:01:25.935Z,3.47
2022-10-12T09:04:12.253Z,4.00
2022-10-12T09:06:41.756Z,3.72
2022-10-12T09:09:11.115Z,3.40
2022-10-12T09:11:44.406Z,2.33
2022-10-12T09:14:13.814Z,2.53
2022-10-12T09:16:42.891Z,1.75
2022-10-12T09:19:17.602Z,1.50
2022-10-12T09:21:45.796Z,1.30
2022-10-12T09:24:18.066Z,1.33
2022-10-12T09:26:46.167Z,1.52
2022-10-12T09:29:26.152Z,1.45
2022-10-12T09:32:11.260Z,1.92
2022-10-12T09:34:37.649Z,1.33
2022-10-12T09:37:04.377Z,1.48
2022-10-12T09:39:34.069Z,0.95
2022-10-12T09:42:00.525Z,1.25
2022-10-12T09:44:31.217Z,1.20
2022-10-12T09:46:59.425Z,2.17
2022-10-12T09:49:50.354Z,1.00
2022-10-12T09:52:17.862Z,1.20
2022-10-12T09:54:52.913Z,1.33
2022-10-12T09:57:25.731Z,2.03
2022-10-12T09:59:52.270Z,1.50
2022-10-12T10:02:27.377Z,1.00
2022-10-12T10:04:54.784Z,2.28
2022-10-12T10:07:23.729Z,1.98
2022-10-12T10:10:16.912Z,2.15
2022-10-12T10:12:54.542Z,1.10
2022-10-12T10:15:29.576Z,1.10
2022-10-12T10:17:59.633Z,1.35
2022-10-12T10:20:51.692Z,1.60
2022-10-12T10:23:22.663Z,2.00
2022-10-12T10:28:23.632Z,1.20
2022-10-12T10:31:06.465Z,1.90
2022-10-12T10:33:34.270Z,1.67
2022-10-12T10:36:04.172Z,1.77
2022-10-12T10:38:31.664Z,1.20
2022-10-12T10:40:58.599Z,1.38
2022-10-12T10:43:27.442Z,2.13
2022-10-12T10:45:55.906Z,2.08
2022-10-12T10:48:24.314Z,1.70
2022-10-12T10:50:52.885Z,2.15
2022-10-12T10:53:19.301Z,1.90
2022-10-12T10:56:04.488Z,1.58
2022-10-12T10:58:39.874Z,1.95
2022-10-12T11:01:12.980Z,2.13
2022-10-12T11:03:39.359Z,1.98
2022-10-12T11:06:17.566Z,1.30
2022-10-12T11:08:44.613Z,1.95
2022-10-12T11:11:20.763Z,1.13
2022-10-12T11:13:55.769Z,1.90
2022-10-12T11:16:34.285Z,1.60
2022-10-12T11:19:05.503Z,2.28
2022-10-12T11:21:36.562Z,1.30
2022-10-12T11:24:08.037Z,1.70
2022-10-12T11:26:41.249Z,1.65
2022-10-12T11:29:12.333Z,1.60
2022-10-12T11:31:43.285Z,1.42
2022-10-12T11:37:01.050Z,1.55
2022-10-12T11:39:32.840Z,1.15
2022-10-12T11:42:20.795Z,1.15
2022-10-12T11:44:47.803Z,1.52
2022-10-12T11:47:17.291Z,1.02
2022-10-12T11:49:50.801Z,1.27
2022-10-12T11:52:17.778Z,1.73
2022-10-12T11:54:48.185Z,0.80
2022-10-12T11:57:19.426Z,1.23
2022-10-12T11:59:48.663Z,1.33
2022-10-12T12:02:20.895Z,1.02
2022-10-12T12:04:48.018Z,1.10
2022-10-12T12:07:33.352Z,1.05
2022-10-12T12:09:59.716Z,1.00
2022-10-12T12:12:27.667Z,0.73
2022-10-12T12:14:54.136Z,0.75
2022-10-12T12:17:20.509Z,0.95
2022-10-12T12:19:49.669Z,1.33
2022-10-12T12:22:16.046Z,1.10
2022-10-12T12:25:04.395Z,1.85
2022-10-12T12:27:39.891Z,1.10
2022-10-12T12:30:21.747Z,1.40
2022-10-12T12:32:49.389Z,1.42
2022-10-12T12:35:24.536Z,1.10
2022-10-12T12:38:00.661Z,0.95
2022-10-12T12:40:27.191Z,1.20
2022-10-12T12:43:12.355Z,1.00
2022-10-12T12:45:39.716Z,0.70
2022-10-12T12:48:08.335Z,0.95
2022-10-12T12:50:36.662Z,0.80
2022-10-12T12:53:06.770Z,1.10
2022-10-12T12:55:43.320Z,0.85
2022-10-12T12:58:35.900Z,1.00
2022-10-12T13:01:21.166Z,1.00
2022-10-12T13:03:50.593Z,0.70
2022-10-12T13:06:17.050Z,1.15
2022-10-12T13:09:05.226Z,0.90
2022-10-12T13:11:33.998Z,1.05
2022-10-12T13:14:18.742Z,1.35
2022-10-12T13:19:50.485Z,1.75
2022-10-12T13:22:25.867Z,1.30
2022-10-12T13:24:54.581Z,1.52
2022-10-12T13:27:23.379Z,0.88
2022-10-12T13:29:54.309Z,1.00
2022-10-12T13:34:47.489Z,1.33
2022-10-12T13:37:14.741Z,1.58
2022-10-12T13:39:43.488Z,1.08
2022-10-12T13:42:12.106Z,1.27
2022-10-12T13:44:38.482Z,1.23
2022-10-12T13:47:23.909Z,0.93
2022-10-12T13:49:50.323Z,2.15
2022-10-12T13:52:33.372Z,1.08
2022-10-12T13:55:01.264Z,1.02
2022-10-12T13:57:31.754Z,1.05
2022-10-12T14:00:00.993Z,1.95
2022-10-12T14:02:29.011Z,0.90
2022-10-12T14:04:56.559Z,1.10
2022-10-12T14:07:26.902Z,1.20
2022-10-12T14:09:55.810Z,1.90
2022-10-12T14:12:25.437Z,1.70
2022-10-12T14:14:52.747Z,1.17
2022-10-12T14:17:19.853Z,0.75
2022-10-12T14:19:48.098Z,1.00
2022-10-12T14:22:22.575Z,0.80
2022-10-12T14:24:49.183Z,1.17
2022-10-12T14:27:23.241Z,1.00
2022-10-12T14:29:50.204Z,1.00
2022-10-12T14:32:16.548Z,1.17
2022-10-12T14:34:47.883Z,0.90
2022-10-12T14:37:14.241Z,1.30
2022-10-12T14:39:41.291Z,1.20
2022-10-12T14:42:19.553Z,1.40
2022-10-12T14:44:45.905Z,0.90
2022-10-12T14:47:17.916Z,0.90
2022-10-12T14:49:45.519Z,1.02
2022-10-12T14:52:24.170Z,1.13
2022-10-12T14:54:51.915Z,0.80
2022-10-12T14:57:18.914Z,0.88
2022-10-12T14:59:46.311Z,0.85
2022-10-12T15:02:18.221Z,0.80
2022-10-12T15:04:46.732Z,0.90
2022-10-12T15:07:33.336Z,1.23
2022-10-12T15:10:00.307Z,1.20
2022-10-12T15:12:27.871Z,2.05
2022-10-12T15:14:55.215Z,1.20
2022-10-12T15:17:21.582Z,1.15
2022-10-12T15:19:49.633Z,1.80
2022-10-12T15:22:17.590Z,1.85
2022-10-12T15:24:44.054Z,1.40
2022-10-12T15:27:10.793Z,1.30
2022-10-12T15:29:37.619Z,1.38
2022-10-12T15:32:04.490Z,1.33
2022-10-12T15:34:31.044Z,1.15
2022-10-12T15:36:57.404Z,0.95
2022-10-12T15:39:23.873Z,1.38
2022-10-12T15:41:50.239Z,1.30
2022-10-12T15:44:19.159Z,1.08
2022-10-12T15:46:45.635Z,1.98
2022-10-12T15:49:14.153Z,0.93
2022-10-12T15:51:44.819Z,1.35
2022-10-12T15:54:11.364Z,1.20
2022-10-12T15:56:37.726Z,1.33
2022-10-12T15:59:04.123Z,1.30
2022-10-12T16:01:30.864Z,1.20
2022-10-12T16:03:57.260Z,1.40
2022-10-12T16:06:23.744Z,1.13
2022-10-12T16:08:50.114Z,1.40
2022-10-12T16:11:17.141Z,1.48
2022-10-12T16:13:53.867Z,1.70
2022-10-12T16:16:26.070Z,2.33
2022-10-12T16:18:53.961Z,1.50
2022-10-12T16:21:20.442Z,1.48
2022-10-12T16:23:46.787Z,1.70
2022-10-12T16:26:14.556Z,1.48
2022-10-12T16:28:41.257Z,1.95
2022-10-12T16:31:11.214Z,1.23
2022-10-12T16:33:38.065Z,1.50
2022-10-12T16:36:08.480Z,1.38
2022-10-12T16:38:34.796Z,1.30
2022-10-12T16:41:01.174Z,2.22
2022-10-12T16:43:27.556Z,2.28
2022-10-12T16:45:56.927Z,1.73
2022-10-12T16:48:23.356Z,1.50
2022-10-12T16:50:49.757Z,2.30
2022-10-12T16:53:16.127Z,2.00
2022-10-12T16:55:42.477Z,2.13
2022-10-12T16:58:08.877Z,2.65
2022-10-12T17:00:35.384Z,2.10
2022-10-12T17:03:01.781Z,2.30
2022-10-12T17:05:28.161Z,1.90
2022-10-12T17:07:54.525Z,1.90
2022-10-12T17:10:20.879Z,2.38
2022-10-12T17:12:47.272Z,3.08
2022-10-12T17:15:13.605Z,2.10
2022-10-12T17:17:40.145Z,2.10
2022-10-12T17:20:06.714Z,2.28
2022-10-12T17:22:33.127Z,2.42
2022-10-12T17:24:59.514Z,4.43
2022-10-12T17:27:30.017Z,1.80
2022-10-12T17:29:59.506Z,1.70
2022-10-12T17:32:26.446Z,1.90
2022-10-12T17:34:52.785Z,2.22
2022-10-12T17:37:19.522Z,2.50
2022-10-12T17:39:47.932Z,2.17
2022-10-12T17:42:15.266Z,2.55
2022-10-12T17:44:41.915Z,3.03
2022-10-12T17:47:08.285Z,2.80
2022-10-12T17:49:34.645Z,3.53
2022-10-12T17:52:01.066Z,2.83
2022-10-12T17:54:27.550Z,4.00
2022-10-12T17:56:54.864Z,2.63
2022-10-12T17:59:21.576Z,2.75
2022-10-12T18:01:48.191Z,1.80
2022-10-12T18:04:14.707Z,1.42
2022-10-12T18:06:44.935Z,1.70
2022-10-12T18:09:14.998Z,1.45
2022-10-12T18:11:41.473Z,2.60
2022-10-12T18:14:09.292Z,1.40
2022-10-12T18:16:35.726Z,1.77
2022-10-12T18:19:03.428Z,1.55
2022-10-12T18:21:30.940Z,2.10
2022-10-12T18:23:57.281Z,1.55
2022-10-12T18:26:24.984Z,1.98
2022-10-12T18:28:52.741Z,1.67
2022-10-12T18:31:20.215Z,2.10
2022-10-12T18:33:46.804Z,2.20
2022-10-12T18:36:13.875Z,2.78
2022-10-12T18:38:40.474Z,1.77
2022-10-12T18:41:10.845Z,4.80
2022-10-12T18:43:37.496Z,3.55
2022-10-12T18:46:11.690Z,2.95
2022-10-12T18:48:38.433Z,5.53
2022-10-12T18:51:09.877Z,4.47
2022-10-12T18:53:36.301Z,2.70
2022-10-12T18:56:04.006Z,5.20
2022-10-12T18:58:31.076Z,3.95
2022-10-12T19:00:57.677Z,2.40
2022-10-12T19:03:24.383Z,3.15
2022-10-12T19:05:50.733Z,1.77
2022-10-12T19:08:17.341Z,5.13
2022-10-12T19:10:43.761Z,2.80
2022-10-12T19:13:10.110Z,3.55
2022-10-12T19:15:39.685Z,2.55
2022-10-12T19:18:06.060Z,2.00
2022-10-12T19:20:35.631Z,2.50
2022-10-12T19:23:02.048Z,1.60
2022-10-12T19:25:28.418Z,2.60
2022-10-12T19:27:54.780Z,2.67
2022-10-12T19:30:21.133Z,2.13
2022-10-12T19:32:48.681Z,2.15
2022-10-12T19:35:15.171Z,3.35
2022-10-12T19:37:41.532Z,2.03
2022-10-12T19:40:11.535Z,2.00
2022-10-12T19:42:37.891Z,3.10
2022-10-12T19:45:04.384Z,2.00
2022-10-12T19:47:30.800Z,1.80
2022-10-12T19:49:57.179Z,1.60
2022-10-12T19:52:23.614Z,2.00
2022-10-12T19:54:49.932Z,1.92
2022-10-12T19:57:16.309Z,2.58
2022-10-12T19:59:43.200Z,2.03
2022-10-12T20:02:10.539Z,2.10
2022-10-12T20:04:36.906Z,3.15
2022-10-12T20:07:06.067Z,2.03
2022-10-12T20:09:32.462Z,2.10
2022-10-12T20:11:58.850Z,1.50
2022-10-12T20:14:25.816Z,1.75
2022-10-12T20:16:52.404Z,2.00
2022-10-12T20:19:18.724Z,3.33
2022-10-12T20:21:45.088Z,2.97
2022-10-12T20:24:11.456Z,3.03
2022-10-12T20:26:38.028Z,2.67
2022-10-12T20:29:04.392Z,3.13
2022-10-12T20:31:30.770Z,1.77
2022-10-12T20:33:58.209Z,3.60
2022-10-12T20:36:26.436Z,2.55
2022-10-12T20:38:53.309Z,2.67
2022-10-12T20:41:21.597Z,2.47
2022-10-12T20:43:48.024Z,2.35
2022-10-12T20:46:16.198Z,2.22
2022-10-12T20:48:44.376Z,1.80
2022-10-12T20:51:15.940Z,2.10
2022-10-12T20:53:42.313Z,2.38
2022-10-12T20:56:08.871Z,2.00
2022-10-12T20:58:35.187Z,1.80
2022-10-12T21:01:02.525Z,1.77
2022-10-12T21:03:28.894Z,2.22
2022-10-12T21:05:55.231Z,1.90
2022-10-12T21:08:21.760Z,2.50
2022-10-12T21:10:48.103Z,2.10
2022-10-12T21:13:14.481Z,2.22
2022-10-12T21:15:40.821Z,1.65
2022-10-12T21:18:07.146Z,1.60
2022-10-12T21:20:33.519Z,1.98
2022-10-12T21:23:01.453Z,2.03
2022-10-12T21:25:27.957Z,2.17
2022-10-12T21:27:54.285Z,2.00
2022-10-12T21:30:20.622Z,2.03
2022-10-12T21:32:47.007Z,2.58
2022-10-12T21:35:13.372Z,2.20
2022-10-12T21:37:39.961Z,2.00
2022-10-12T21:40:06.710Z,1.85
2022-10-12T21:42:33.036Z,2.58
2022-10-12T21:44:59.394Z,5.40
2022-10-12T21:47:25.744Z,2.53
2022-10-12T21:49:52.118Z,2.00
2022-10-12T21:52:18.818Z,1.85
2022-10-12T21:54:45.766Z,2.72
2022-10-12T21:57:12.106Z,1.85
2022-10-12T21:59:38.443Z,2.53
2022-10-12T22:02:04.860Z,3.08
2022-10-12T22:04:31.236Z,2.00
2022-10-12T22:07:00.524Z,1.98
2022-10-12T22:09:27.162Z,1.55
2022-10-12T22:11:53.856Z,1.90
2022-10-12T22:14:22.312Z,2.38
2022-10-12T22:16:48.753Z,2.10
2022-10-12T22:19:18.698Z,1.90
2022-10-12T22:21:48.846Z,1.63
2022-10-12T22:24:15.351Z,2.87
2022-10-12T22:26:41.755Z,2.15
2022-10-12T22:29:08.668Z,2.13
2022-10-12T22:31:35.089Z,1.92
2022-10-12T22:34:01.440Z,2.42
2022-10-12T22:36:27.764Z,2.55
2022-10-12T22:38:54.165Z,2.90
2022-10-12T22:41:21.137Z,1.85
2022-10-12T22:43:48.254Z,1.90
2022-10-12T22:46:15.154Z,1.83
2022-10-12T22:48:41.680Z,1.67
2022-10-12T22:51:08.510Z,1.85
2022-10-12T22:53:35.250Z,2.13
2022-10-12T22:56:03.279Z,1.80
2022-10-12T22:58:29.784Z,1.85
2022-10-12T23:01:02.184Z,1.95
2022-10-12T23:03:29.298Z,2.20
2022-10-12T23:05:55.690Z,2.03
2022-10-12T23:08:22.003Z,1.90
2022-10-12T23:10:48.348Z,1.80
2022-10-12T23:13:14.747Z,2.20
2022-10-12T23:15:41.167Z,2.10
2022-10-12T23:18:07.780Z,2.92
2022-10-12T23:20:34.476Z,1.83
2022-10-12T23:23:00.865Z,1.70
2022-10-12T23:25:29.422Z,2.25
2022-10-12T23:27:55.778Z,4.28
2022-10-12T23:30:22.175Z,1.95
2022-10-12T23:32:48.598Z,2.22
2022-10-12T23:35:14.979Z,2.58
2022-10-12T23:37:44.510Z,1.77
2022-10-12T23:40:11.379Z,1.70
2022-10-12T23:42:37.912Z,2.38
2022-10-12T23:45:04.455Z,1.40
2022-10-12T23:47:30.848Z,2.28
2022-10-12T23:49:57.235Z,3.28
2022-10-12T23:52:23.615Z,1.70
2022-10-12T23:54:49.947Z,2.15
2022-10-12T23:57:41.701Z,1.83
